Time;durP1;ratioP1;P1;durP2;ratioP2;P2;SDS_P1;SDS_P2;PMS_P1;PMS_P2;Temp;Humidity;BMP_temperature;BMP_pressure;BME280_temperature;BME280_humidity;BME280_pressure;Samples;Min_cycle;Max_cycle;Signal;HPM_P1;HPM_P2
2023/10/30 00:00:19;;;;;;;16.90;8.30;;;;;;;10.49;70.10;99312.46;107354;1253;72585;-37
2023/10/30 00:02:47;;;;;;;16.00;8.60;;;;;;;10.45;70.11;99313.56;107386;1254;67992;-37
2023/10/30 00:05:16;;;;;;;14.60;7.90;;;;;;;10.41;70.24;99314.17;107435;1253;72657;-36
2023/10/30 00:07:43;;;;;;;14.30;7.90;;;;;;;10.39;70.40;99311.42;107477;1254;60134;-36
2023/10/30 00:10:11;;;;;;;14.40;8.30;;;;;;;10.36;70.41;99312.92;107384;1256;60400;-36
2023/10/30 00:12:39;;;;;;;14.40;8.00;;;;;;;10.35;70.51;99315.86;107392;1253;72568;-37
2023/10/30 00:15:07;;;;;;;13.90;7.70;;;;;;;10.33;70.74;99312.55;107316;1254;67568;-36
2023/10/30 00:17:34;;;;;;;13.50;7.80;;;;;;;10.38;70.61;99312.65;107373;1253;72629;-36
2023/10/30 00:20:03;;;;;;;13.40;7.80;;;;;;;10.41;70.48;99311.39;107309;1253;60485;-36
2023/10/30 00:22:31;;;;;;;14.80;7.70;;;;;;;10.42;70.49;99305.83;107410;1253;59739;-36
2023/10/30 00:24:59;;;;;;;16.40;8.40;;;;;;;10.41;70.57;99304.80;107431;1254;73908;-37
2023/10/30 00:27:27;;;;;;;14.00;8.30;;;;;;;10.39;70.62;99301.59;107502;1253;67580;-37
2023/10/30 00:29:55;;;;;;;18.90;8.40;;;;;;;10.37;70.53;99300.63;107351;1253;72715;-37
2023/10/30 00:32:22;;;;;;;14.00;8.10;;;;;;;10.34;70.54;99305.20;107437;1254;60383;-37
2023/10/30 00:34:52;;;;;;;16.80;7.80;;;;;;;10.31;70.64;99303.22;107477;1253;60273;-37
2023/10/30 00:37:19;;;;;;;14.40;7.00;;;;;;;10.32;70.57;99300.63;107475;1253;73878;-37
2023/10/30 00:39:48;;;;;;;15.20;8.10;;;;;;;10.37;70.59;99302.17;107486;1254;66679;-37
2023/10/30 00:42:15;;;;;;;15.00;7.70;;;;;;;10.38;70.54;99303.27;107463;1254;72660;-36
2023/10/30 00:44:43;;;;;;;13.40;7.70;;;;;;;10.36;70.71;99309.05;107224;1260;60572;-37
2023/10/30 00:47:11;;;;;;;13.40;8.00;;;;;;;10.35;70.65;99307.81;107356;1254;60402;-36
2023/10/30 00:49:38;;;;;;;14.50;8.60;;;;;;;10.33;70.65;99307.42;107395;1254;73864;-36
2023/10/30 00:52:06;;;;;;;14.80;8.00;;;;;;;10.31;70.71;99307.33;107401;1259;66305;-37
2023/10/30 00:54:33;;;;;;;13.90;8.50;;;;;;;10.28;70.80;99300.92;107345;1253;72692;-37
2023/10/30 00:57:01;;;;;;;14.70;7.20;;;;;;;10.32;70.61;99307.35;107407;1254;60692;-36
2023/10/30 00:59:28;;;;;;;12.70;7.60;;;;;;;10.35;70.55;99309.27;107423;1253;60431;-36
2023/10/30 01:01:56;;;;;;;15.00;8.50;;;;;;;10.35;70.83;99308.11;107475;1253;73876;-36
2023/10/30 01:04:24;;;;;;;15.60;8.60;;;;;;;10.33;70.81;99303.73;107457;1259;67567;-37
2023/10/30 01:06:52;;;;;;;15.00;8.90;;;;;;;10.30;70.80;99300.27;107353;1254;169489;-37
2023/10/30 01:12:07;;;;;;;15.80;8.30;;;;;;;10.26;70.91;99293.14;104081;1292;601100;-36
2023/10/30 01:14:35;;;;;;;17.60;8.20;;;;;;;10.21;70.86;99291.05;106508;1266;61704;-36
2023/10/30 01:17:03;;;;;;;14.90;7.80;;;;;;;10.23;70.74;99296.17;106613;1267;59463;-37
2023/10/30 01:19:31;;;;;;;15.30;7.90;;;;;;;10.25;70.85;99295.62;106654;1266;72252;-37
2023/10/30 01:22:00;;;;;;;15.60;7.40;;;;;;;10.25;70.93;99294.67;106670;1266;67585;-37
2023/10/30 01:24:28;;;;;;;16.00;8.20;;;;;;;10.24;71.08;99292.72;106671;1267;72670;-37
2023/10/30 01:26:55;;;;;;;15.20;9.40;;;;;;;10.25;71.12;99286.61;106551;1263;204961;-37
2023/10/30 01:29:23;;;;;;;15.20;8.80;;;;;;;10.24;70.87;99282.48;106704;1263;60029;-37
2023/10/30 01:31:51;;;;;;;15.10;8.50;;;;;;;10.21;71.06;99278.25;106628;1264;72408;-36
2023/10/30 01:34:20;;;;;;;14.00;8.40;;;;;;;10.19;70.92;99275.67;106595;1269;65404;-37
2023/10/30 01:36:48;;;;;;;13.90;8.80;;;;;;;10.24;70.98;99275.15;106533;1267;72703;-37
2023/10/30 01:39:18;;;;;;;15.00;8.80;;;;;;;10.27;70.85;99273.10;106686;1266;60179;-37
2023/10/30 01:41:45;;;;;;;18.00;8.80;;;;;;;10.27;70.98;99271.80;106712;1264;60061;-37
2023/10/30 01:44:13;;;;;;;12.40;8.10;;;;;;;10.27;71.01;99269.63;106708;1269;73082;-36
2023/10/30 01:46:40;;;;;;;12.20;8.00;;;;;;;10.27;70.89;99271.94;106732;1264;66442;-36
2023/10/30 01:49:08;;;;;;;16.00;9.30;;;;;;;10.27;70.90;99268.52;107224;1257;72500;-36
2023/10/30 01:51:36;;;;;;;16.30;9.20;;;;;;;10.26;70.92;99264.59;107221;1257;60100;-36
2023/10/30 01:54:04;;;;;;;15.80;8.60;;;;;;;10.22;70.80;99263.42;107024;1257;60251;-37
2023/10/30 01:56:32;;;;;;;16.70;9.10;;;;;;;10.24;70.82;99258.96;107288;1257;71800;-36
2023/10/30 01:58:59;;;;;;;16.20;8.90;;;;;;;10.28;70.74;99265.55;107063;1262;67578;-36
2023/10/30 02:01:27;;;;;;;14.70;8.40;;;;;;;10.27;70.69;99263.20;107079;1256;72675;-36
2023/10/30 02:03:56;;;;;;;15.90;9.70;;;;;;;10.25;70.67;99267.27;107076;1257;60245;-37
2023/10/30 02:06:24;;;;;;;17.30;9.70;;;;;;;10.23;70.49;99274.90;107082;1258;60041;-37
2023/10/30 02:08:52;;;;;;;15.70;9.10;;;;;;;10.18;70.55;99275.40;107233;1256;72744;-37
2023/10/30 02:11:20;;;;;;;17.80;10.00;;;;;;;10.10;70.64;99279.66;107255;1257;67621;-36
2023/10/30 02:13:57;;;;;;;13.90;8.40;;;;;;;10.02;70.79;99281.60;107252;1260;72673;-36
2023/10/30 02:16:25;;;;;;;17.20;9.10;;;;;;;10.01;70.78;99279.03;107116;1257;61733;-37
2023/10/30 02:18:53;;;;;;;16.60;9.40;;;;;;;10.00;71.01;99272.11;107093;1257;60011;-37
2023/10/30 02:21:20;;;;;;;14.20;9.20;;;;;;;9.96;71.14;99275.60;107065;1258;71986;-37
2023/10/30 02:23:49;;;;;;;16.20;9.10;;;;;;;9.90;71.30;99274.70;107149;1260;68333;-37
2023/10/30 02:26:17;;;;;;;18.70;9.10;;;;;;;9.87;71.46;99273.40;107062;1257;72761;-36
2023/10/30 02:28:44;;;;;;;17.60;9.50;;;;;;;9.83;71.62;99274.71;107200;1257;59590;-37
2023/10/30 02:31:12;;;;;;;17.30;9.00;;;;;;;9.80;71.72;99278.97;107122;1258;59225;-37
2023/10/30 02:33:39;;;;;;;14.40;8.80;;;;;;;9.84;71.83;99274.80;106995;1258;71848;-36
2023/10/30 02:36:07;;;;;;;16.20;8.20;;;;;;;9.87;71.66;99275.66;107054;1260;67601;-36
2023/10/30 02:38:35;;;;;;;17.40;9.80;;;;;;;9.88;71.95;99272.02;107033;1257;72770;-37
2023/10/30 02:41:04;;;;;;;18.00;9.40;;;;;;;9.90;72.06;99268.27;107060;1259;59592;-37
2023/10/30 02:43:31;;;;;;;18.60;9.40;;;;;;;9.91;72.08;99270.46;107235;1260;59509;-37
2023/10/30 02:45:59;;;;;;;13.00;8.50;;;;;;;9.92;72.09;99264.60;107031;1258;73080;-36
2023/10/30 02:48:27;;;;;;;18.50;10.10;;;;;;;9.93;72.04;99265.92;107074;1257;67578;-37
2023/10/30 02:50:58;;;;;;;16.60;8.80;;;;;;;9.94;72.01;99264.25;107180;1260;73010;-37
2023/10/30 02:53:25;;;;;;;19.70;8.70;;;;;;;9.99;71.76;99261.73;107094;1261;60517;-37
2023/10/30 02:55:53;;;;;;;18.80;8.50;;;;;;;10.05;71.68;99262.13;107187;1260;59481;-37
2023/10/30 02:58:21;;;;;;;18.10;9.20;;;;;;;10.04;71.76;99258.26;107031;1260;71810;-37
2023/10/30 03:00:48;;;;;;;17.30;9.00;;;;;;;10.04;71.74;99265.69;107032;1260;65814;-37
2023/10/30 03:03:16;;;;;;;19.40;9.00;;;;;;;10.06;71.69;99270.91;107103;1260;72677;-37
2023/10/30 03:05:45;;;;;;;19.00;9.70;;;;;;;10.01;71.69;99266.62;107013;1260;60248;-37
2023/10/30 03:08:12;;;;;;;17.80;9.00;;;;;;;10.01;71.78;99273.36;107109;1258;60105;-37
2023/10/30 03:10:40;;;;;;;15.60;8.50;;;;;;;10.04;71.74;99273.66;107019;1258;73628;-37
2023/10/30 03:13:07;;;;;;;18.60;9.30;;;;;;;10.08;71.47;99272.02;107171;1260;66324;-37
2023/10/30 03:15:36;;;;;;;16.60;9.40;;;;;;;10.03;71.66;99268.55;107144;1260;72675;-37
2023/10/30 03:18:04;;;;;;;17.10;9.10;;;;;;;9.98;71.86;99265.56;107180;1260;60059;-37
2023/10/30 03:20:32;;;;;;;16.50;9.60;;;;;;;9.94;72.14;99268.04;107092;1260;60205;-37
2023/10/30 03:23:00;;;;;;;17.60;9.90;;;;;;;9.91;72.34;99264.27;107285;1260;71702;-37
2023/10/30 03:25:27;;;;;;;20.60;8.80;;;;;;;9.91;72.48;99265.52;107083;1262;66651;-37
2023/10/30 03:27:55;;;;;;;15.60;9.20;;;;;;;9.96;72.31;99266.46;107192;1260;72657;-37
2023/10/30 03:30:22;;;;;;;16.40;8.50;;;;;;;10.02;72.18;99266.73;107012;1261;59686;-37
2023/10/30 03:32:50;;;;;;;16.30;9.20;;;;;;;10.02;72.29;99266.48;107096;1258;60602;-37
2023/10/30 03:35:17;;;;;;;14.20;9.00;;;;;;;10.02;72.33;99263.87;107083;1260;72843;-37
2023/10/30 03:37:45;;;;;;;17.80;9.40;;;;;;;10.02;72.45;99265.65;107233;1260;66512;-37
2023/10/30 03:40:13;;;;;;;18.00;9.90;;;;;;;10.02;72.42;99266.34;107084;1260;72648;-37
2023/10/30 03:42:40;;;;;;;17.70;9.30;;;;;;;10.00;72.37;99265.77;107254;1257;61689;-37
2023/10/30 03:45:09;;;;;;;15.90;7.90;;;;;;;10.05;72.33;99267.55;107207;1258;59519;-37
2023/10/30 03:47:37;;;;;;;14.10;8.70;;;;;;;10.10;72.21;99268.13;107253;1263;72125;-37
2023/10/30 03:50:06;;;;;;;16.10;9.00;;;;;;;10.10;72.18;99264.41;107019;1260;68123;-37
2023/10/30 03:52:33;;;;;;;21.30;9.80;;;;;;;10.10;72.34;99262.70;107088;1260;72495;-37
2023/10/30 03:55:03;;;;;;;13.20;8.10;;;;;;;10.11;72.22;99259.70;107130;1258;59624;-37
2023/10/30 03:57:31;;;;;;;16.30;8.70;;;;;;;10.10;72.31;99254.48;107072;1260;60348;-37
2023/10/30 03:59:59;;;;;;;16.50;9.00;;;;;;;10.11;72.18;99249.94;107036;1258;72215;-37
2023/10/30 04:02:28;;;;;;;14.80;8.60;;;;;;;10.17;72.01;99245.67;107171;1260;67598;-37
2023/10/30 04:04:55;;;;;;;13.20;8.40;;;;;;;10.24;72.03;99241.62;107047;1260;72737;-37
2023/10/30 04:07:24;;;;;;;15.20;8.50;;;;;;;10.27;72.00;99242.30;107052;1257;59072;-37
2023/10/30 04:09:51;;;;;;;16.60;8.90;;;;;;;10.29;71.86;99243.43;107287;1258;59951;-37
2023/10/30 04:12:20;;;;;;;15.10;9.30;;;;;;;10.31;71.99;99245.23;107187;1257;73179;-37
2023/10/30 04:14:49;;;;;;;17.00;8.90;;;;;;;10.32;71.78;99241.38;107099;1257;67891;-37
2023/10/30 04:17:17;;;;;;;14.10;8.60;;;;;;;10.28;71.72;99241.02;107217;1261;72781;-37
2023/10/30 04:19:45;;;;;;;15.70;9.00;;;;;;;10.32;71.57;99241.54;107094;1260;61676;-37
2023/10/30 04:22:12;;;;;;;13.60;8.40;;;;;;;10.34;71.55;99238.02;107057;1257;60061;-37
2023/10/30 04:24:40;;;;;;;16.10;8.80;;;;;;;10.34;71.65;99236.63;107206;1258;71951;-37
2023/10/30 04:27:08;;;;;;;15.60;8.70;;;;;;;10.33;71.78;99232.80;107199;1257;67620;-37
2023/10/30 04:29:35;;;;;;;16.00;9.10;;;;;;;10.30;71.62;99233.85;107227;1257;72724;-37
2023/10/30 04:32:04;;;;;;;18.30;9.30;;;;;;;10.27;71.73;99234.09;107240;1260;60056;-37
2023/10/30 04:34:31;;;;;;;13.20;8.40;;;;;;;10.24;71.65;99235.35;107163;1256;58767;-37
2023/10/30 04:37:00;;;;;;;15.90;7.30;;;;;;;10.25;71.68;99234.84;107068;1257;72153;-37
2023/10/30 04:39:28;;;;;;;14.70;8.10;;;;;;;10.27;71.52;99231.31;107147;1257;67574;-37
2023/10/30 04:41:56;;;;;;;16.90;8.40;;;;;;;10.25;71.71;99230.27;107065;1263;73245;-37
2023/10/30 04:44:24;;;;;;;14.70;8.50;;;;;;;10.23;71.68;99231.40;107077;1257;59742;-37
2023/10/30 04:46:52;;;;;;;14.90;8.40;;;;;;;10.22;71.87;99232.15;107206;1257;59519;-37
2023/10/30 04:49:19;;;;;;;15.00;8.40;;;;;;;10.22;71.91;99227.65;107236;1257;71780;-37
2023/10/30 04:51:47;;;;;;;15.00;8.30;;;;;;;10.23;72.02;99223.57;107205;1257;67759;-37
2023/10/30 04:54:14;;;;;;;12.00;7.40;;;;;;;10.28;71.72;99220.95;107221;1257;72740;-37
2023/10/30 04:56:42;;;;;;;13.90;8.40;;;;;;;10.31;71.46;99222.79;107247;1257;59593;-37
2023/10/30 04:59:10;;;;;;;18.60;8.30;;;;;;;10.29;71.46;99224.21;107198;1262;59241;-37
2023/10/30 05:01:37;;;;;;;12.80;8.20;;;;;;;10.26;71.38;99220.61;107069;1257;73089;-37
2023/10/30 05:04:05;;;;;;;14.70;8.90;;;;;;;10.23;71.51;99221.71;107168;1257;66764;-38
2023/10/30 05:06:33;;;;;;;15.20;9.00;;;;;;;10.21;71.42;99226.33;107115;1257;72691;-37
2023/10/30 05:09:01;;;;;;;15.30;8.40;;;;;;;10.16;71.53;99226.75;107201;1257;60111;-37
2023/10/30 05:11:28;;;;;;;14.50;8.10;;;;;;;10.18;71.51;99225.56;107211;1261;58738;-37
2023/10/30 05:13:56;;;;;;;14.70;7.20;;;;;;;10.21;71.47;99232.14;107219;1260;73163;-37
2023/10/30 05:16:24;;;;;;;15.70;9.30;;;;;;;10.19;71.54;99233.81;107057;1260;66631;-37
2023/10/30 05:18:52;;;;;;;15.80;8.30;;;;;;;10.16;71.62;99232.73;107004;1262;70629;-37
2023/10/30 05:21:19;;;;;;;13.10;8.00;;;;;;;10.13;71.76;99233.12;107015;1260;60416;-37
2023/10/30 05:23:48;;;;;;;15.50;8.60;;;;;;;10.11;71.95;99235.48;107007;1257;60299;-37
2023/10/30 05:26:16;;;;;;;13.20;7.30;;;;;;;10.10;72.00;99239.34;107117;1257;72534;-37
2023/10/30 05:28:43;;;;;;;13.20;7.50;;;;;;;10.15;71.92;99236.40;107223;1260;66309;-37
2023/10/30 05:31:11;;;;;;;13.40;7.10;;;;;;;10.20;72.00;99231.73;107211;1260;72786;-37
2023/10/30 05:33:39;;;;;;;14.20;7.90;;;;;;;10.19;72.00;99232.40;107207;1258;60364;-37
2023/10/30 05:36:07;;;;;;;15.60;7.90;;;;;;;10.18;72.12;99229.89;107054;1259;60578;-37
2023/10/30 05:38:35;;;;;;;14.20;7.70;;;;;;;10.17;72.23;99229.03;107229;1260;73831;-37
2023/10/30 05:41:03;;;;;;;13.40;7.30;;;;;;;10.16;72.27;99231.33;106342;1258;1003083;-37
2023/10/30 05:43:30;;;;;;;16.50;7.80;;;;;;;10.17;72.31;99228.65;107195;1257;72275;-37
2023/10/30 05:45:58;;;;;;;16.70;7.90;;;;;;;10.24;72.17;99230.80;107194;1257;60451;-37
2023/10/30 05:48:27;;;;;;;14.00;7.30;;;;;;;10.34;72.08;99232.73;107110;1260;60041;-37
2023/10/30 05:50:54;;;;;;;14.60;8.40;;;;;;;10.38;72.04;99232.91;107067;1257;73889;-37
2023/10/30 05:53:22;;;;;;;12.80;7.40;;;;;;;10.43;72.02;99236.85;107221;1259;66633;-37
2023/10/30 05:55:49;;;;;;;12.30;7.70;;;;;;;10.48;72.10;99236.02;107220;1260;71432;-38
2023/10/30 05:58:17;;;;;;;13.70;7.80;;;;;;;10.54;72.18;99236.81;107072;1262;60389;-37
2023/10/30 06:00:45;;;;;;;13.50;7.00;;;;;;;10.61;71.99;99234.77;107083;1260;60034;-37
2023/10/30 06:03:14;;;;;;;9.60;6.30;;;;;;;10.74;71.85;99236.77;107076;1262;73840;-37
2023/10/30 06:05:42;;;;;;;;;;;;;;;10.85;71.41;99240.73;107134;1261;66319;-37
2023/10/30 06:08:10;;;;;;;13.20;6.90;;;;;;;10.91;71.20;99239.98;107109;1257;71434;-37
2023/10/30 06:10:38;;;;;;;12.20;6.80;;;;;;;10.98;71.31;99241.16;107463;1259;60279;-37
2023/10/30 06:13:07;;;;;;;14.80;6.90;;;;;;;11.04;71.24;99237.84;107295;1254;59228;-37
2023/10/30 06:15:35;;;;;;;12.00;7.20;;;;;;;11.10;70.68;99239.01;107460;1253;73863;-37
2023/10/30 06:18:03;;;;;;;13.20;6.60;;;;;;;11.16;70.13;99235.23;107362;1254;67966;-37
2023/10/30 06:20:31;;;;;;;11.80;6.20;;;;;;;11.28;69.39;99233.54;107485;1254;72684;-37
2023/10/30 06:22:59;;;;;;;12.30;6.90;;;;;;;11.36;69.30;99238.85;107294;1259;60339;-38
2023/10/30 06:25:27;;;;;;;12.40;7.00;;;;;;;11.39;68.99;99241.44;107335;1254;60193;-36
2023/10/30 06:27:55;;;;;;;12.50;7.10;;;;;;;11.42;69.15;99241.17;107343;1254;73802;-36
2023/10/30 06:30:22;;;;;;;15.60;7.80;;;;;;;11.45;69.02;99243.01;107473;1253;67549;-37
2023/10/30 06:32:50;;;;;;;14.00;6.70;;;;;;;11.49;68.61;99243.89;107341;1254;72777;-36
2023/10/30 06:35:18;;;;;;;12.50;6.00;;;;;;;11.56;68.72;99243.53;107436;1254;61663;-36
2023/10/30 06:37:45;;;;;;;11.70;6.90;;;;;;;11.65;68.32;99238.60;107348;1259;60377;-37
2023/10/30 06:40:13;;;;;;;12.10;6.90;;;;;;;11.69;68.34;99237.80;107460;1254;72648;-37
2023/10/30 06:42:40;;;;;;;14.40;7.20;;;;;;;11.70;68.14;99235.34;107431;1254;67197;-36
2023/10/30 06:45:09;;;;;;;12.80;7.80;;;;;;;11.73;67.91;99238.72;107376;1253;72679;-37
2023/10/30 06:47:36;;;;;;;14.70;6.80;;;;;;;11.74;67.72;99237.59;107471;1254;60528;-37
2023/10/30 06:50:05;;;;;;;13.40;6.80;;;;;;;11.73;67.57;99237.96;107354;1259;60311;-36
2023/10/30 06:52:32;;;;;;;12.30;6.10;;;;;;;11.74;67.63;99236.34;106552;1254;1003764;-37
2023/10/30 06:55:00;;;;;;;12.30;5.90;;;;;;;11.80;67.73;99232.98;107359;1254;66297;-36
2023/10/30 06:57:28;;;;;;;11.60;6.50;;;;;;;11.87;67.50;99238.04;107337;1254;72661;-37
2023/10/30 06:59:57;;;;;;;12.40;6.80;;;;;;;11.89;67.47;99234.96;107368;1259;60341;-37
2023/10/30 07:02:25;;;;;;;14.30;6.80;;;;;;;11.92;67.56;99235.45;107318;1254;60069;-37
2023/10/30 07:04:52;;;;;;;13.60;7.00;;;;;;;11.95;67.64;99232.70;107525;1259;74116;-37
2023/10/30 07:07:20;;;;;;;10.50;6.80;;;;;;;11.98;67.60;99232.88;107352;1254;67700;-38
2023/10/30 07:09:48;;;;;;;9.80;5.80;;;;;;;11.99;67.58;99230.95;107331;1254;72810;-37
2023/10/30 07:12:15;;;;;;;13.90;5.90;;;;;;;12.10;67.45;99234.65;107376;1254;60471;-37
2023/10/30 07:14:43;;;;;;;10.00;5.40;;;;;;;12.21;67.06;99234.14;107430;1258;60280;-38
2023/10/30 07:17:10;;;;;;;10.80;5.50;;;;;;;12.28;67.10;99232.11;107389;1254;74212;-38
2023/10/30 07:19:39;;;;;;;10.80;5.90;;;;;;;12.34;66.80;99231.40;107475;1253;67732;-37
2023/10/30 07:22:07;;;;;;;13.80;5.60;;;;;;;12.40;66.57;99229.13;107525;1254;71435;-37
2023/10/30 07:24:35;;;;;;;11.30;5.80;;;;;;;12.45;66.32;99229.95;107566;1254;60409;-38
2023/10/30 07:27:03;;;;;;;11.20;6.10;;;;;;;12.50;66.18;99234.34;107516;1254;60486;-38
2023/10/30 07:29:31;;;;;;;12.90;6.70;;;;;;;12.54;65.93;99228.17;107385;1254;73858;-37
2023/10/30 07:31:59;;;;;;;12.40;5.40;;;;;;;12.59;66.01;99226.35;107425;1255;67733;-37
2023/10/30 07:34:27;;;;;;;9.40;5.20;;;;;;;12.71;65.55;99227.62;107480;1254;72689;-37
2023/10/30 07:36:54;;;;;;;9.80;5.20;;;;;;;12.82;64.98;99225.83;107495;1253;60379;-37
2023/10/30 07:39:22;;;;;;;13.90;5.50;;;;;;;12.91;64.76;99233.75;107518;1254;60549;-38
2023/10/30 07:41:50;;;;;;;10.40;5.50;;;;;;;13.00;64.81;99235.75;107515;1254;73825;-37
2023/10/30 07:44:17;;;;;;;12.80;5.30;;;;;;;13.09;64.75;99239.02;107344;1254;67721;-37
2023/10/30 07:46:46;;;;;;;13.20;5.20;;;;;;;13.19;64.59;99237.08;107343;1257;72096;-37
2023/10/30 07:49:14;;;;;;;8.50;5.00;;;;;;;13.27;64.37;99242.11;107289;1260;60496;-38
2023/10/30 07:51:41;;;;;;;15.30;5.40;;;;;;;13.37;63.55;99242.17;107347;1257;60347;-37
2023/10/30 07:54:09;;;;;;;8.70;4.00;;;;;;;13.48;63.46;99243.01;107356;1254;72579;-37
2023/10/30 07:56:36;;;;;;;7.90;4.10;;;;;;;13.64;63.13;99239.97;107384;1259;67930;-38
2023/10/30 07:59:07;;;;;;;9.20;4.30;;;;;;;13.77;62.19;99243.14;107404;1254;71464;-37
2023/10/30 08:01:35;;;;;;;10.90;4.60;;;;;;;13.85;61.92;99240.91;107334;1259;60546;-38
2023/10/30 08:04:03;;;;;;;6.60;4.10;;;;;;;13.92;61.75;99243.74;107394;1254;60405;-38
2023/10/30 08:06:41;;;;;;;7.80;4.80;;;;;;;13.98;61.12;99245.94;107329;1253;72630;-37
2023/10/30 08:09:09;;;;;;;8.20;4.10;;;;;;;14.04;61.35;99243.16;107310;1259;66462;-37
2023/10/30 08:11:37;;;;;;;7.80;4.20;;;;;;;14.08;61.36;99246.05;107321;1257;70479;-38
2023/10/30 08:14:05;;;;;;;10.10;4.00;;;;;;;14.12;61.24;99238.20;107316;1254;60383;-38
2023/10/30 08:16:34;;;;;;;8.80;4.00;;;;;;;14.16;61.05;99240.31;107329;1254;60328;-38
2023/10/30 08:19:02;;;;;;;7.90;3.50;;;;;;;14.19;60.88;99241.57;107292;1260;73845;-37
2023/10/30 08:21:30;;;;;;;9.40;4.30;;;;;;;14.21;60.72;99237.05;107294;1254;66593;-38
2023/10/30 08:23:58;;;;;;;10.30;4.10;;;;;;;14.26;60.78;99236.52;107301;1254;72674;-38
2023/10/30 08:26:25;;;;;;;8.70;3.90;;;;;;;14.30;60.78;99240.50;107357;1260;60514;-38
2023/10/30 08:28:53;;;;;;;15.60;4.80;;;;;;;14.34;60.82;99239.72;107397;1259;60268;-38
2023/10/30 08:31:22;;;;;;;8.50;4.40;;;;;;;14.38;60.60;99234.69;107390;1259;72629;-38
2023/10/30 08:33:50;;;;;;;11.00;4.70;;;;;;;14.45;60.54;99234.16;107377;1254;67596;-38
2023/10/30 08:36:22;;;;;;;6.30;3.90;;;;;;;14.51;60.78;99224.34;107303;1257;71357;-37
2023/10/30 08:38:49;;;;;;;7.50;3.70;;;;;;;14.60;60.42;99227.30;107406;1253;60144;-36
2023/10/30 08:41:20;;;;;;;19.70;4.70;;;;;;;14.70;60.03;99220.53;107409;1255;60318;-37
2023/10/30 08:43:54;;;;;;;10.30;3.90;;;;;;;14.81;59.79;99221.62;107283;1253;73965;-37
2023/10/30 08:46:22;;;;;;;7.50;3.50;;;;;;;14.94;59.13;99214.98;107310;1260;66102;-37
2023/10/30 08:48:50;;;;;;;5.90;3.40;;;;;;;15.07;58.70;99211.70;107373;1254;71884;-37
2023/10/30 08:51:18;;;;;;;6.40;3.90;;;;;;;15.23;58.50;99206.27;107352;1254;59876;-37
2023/10/30 08:53:46;;;;;;;9.50;4.00;;;;;;;15.39;58.02;99210.52;107370;1259;60373;-37
2023/10/30 08:56:14;;;;;;;5.60;3.00;;;;;;;15.55;56.83;99210.17;107452;1254;73932;-38
2023/10/30 08:58:41;;;;;;;7.10;3.60;;;;;;;15.70;56.56;99212.39;107432;1252;66795;-37
2023/10/30 09:01:09;;;;;;;16.90;4.20;;;;;;;15.84;56.21;99215.30;107510;1255;72731;-36
2023/10/30 09:03:37;;;;;;;37.30;7.70;;;;;;;15.97;55.84;99211.48;107615;1254;60405;-36
2023/10/30 09:06:05;;;;;;;25.20;5.30;;;;;;;16.11;55.32;99197.50;107472;1257;60370;-36
2023/10/30 09:08:34;;;;;;;11.50;3.50;;;;;;;16.23;54.27;99206.34;107552;1259;73958;-36
2023/10/30 09:11:02;;;;;;;50.00;7.80;;;;;;;16.32;54.06;99202.84;107473;1254;66510;-36
2023/10/30 09:13:31;;;;;;;37.50;7.40;;;;;;;16.41;53.80;99202.38;107486;1255;72686;-36
2023/10/30 09:15:59;;;;;;;10.10;3.80;;;;;;;16.49;54.03;99200.91;107502;1254;60408;-36
2023/10/30 09:18:27;;;;;;;10.30;3.50;;;;;;;16.56;53.65;99208.14;107453;1253;60434;-36
2023/10/30 09:20:54;;;;;;;6.60;3.00;;;;;;;16.63;53.48;99196.30;107619;1255;72932;-36
2023/10/30 09:23:23;;;;;;;7.50;3.30;;;;;;;16.68;53.14;99197.50;107577;1254;67846;-36
2023/10/30 09:25:51;;;;;;;9.50;3.40;;;;;;;16.74;52.72;99193.23;107400;1258;72752;-36
2023/10/30 09:28:18;;;;;;;5.60;2.80;;;;;;;16.77;52.79;99194.45;107359;1259;60300;-36
2023/10/30 09:30:46;;;;;;;30.60;5.30;;;;;;;16.80;52.91;99195.52;107583;1256;60383;-36
2023/10/30 09:33:14;;;;;;;35.20;7.70;;;;;;;16.84;52.99;99197.05;107504;1259;73934;-36
2023/10/30 09:35:42;;;;;;;7.00;2.90;;;;;;;16.89;52.45;99195.28;107533;1259;67731;-36
2023/10/30 09:38:10;;;;;;;53.40;7.60;;;;;;;16.95;52.16;99191.94;107553;1259;71477;-36
2023/10/30 09:40:37;;;;;;;7.90;3.80;;;;;;;17.03;52.26;99193.27;107462;1259;60482;-36
2023/10/30 09:43:09;;;;;;;6.30;2.90;;;;;;;17.16;52.65;99193.85;107593;1254;59154;-36
2023/10/30 09:45:41;;;;;;;5.70;2.80;;;;;;;17.32;52.05;99190.39;107491;1254;72640;-36
2023/10/30 09:48:09;;;;;;;4.30;2.80;;;;;;;17.49;52.01;99184.48;107398;1259;68046;-36
2023/10/30 09:50:36;;;;;;;20.60;4.30;;;;;;;17.66;51.44;99184.38;107342;1260;72685;-36
2023/10/30 09:53:05;;;;;;;8.20;2.90;;;;;;;17.82;51.32;99179.23;107518;1254;60512;-36
2023/10/30 09:55:33;;;;;;;6.70;3.20;;;;;;;17.95;50.91;99177.02;107490;1259;60444;-36
2023/10/30 09:58:01;;;;;;;6.10;3.10;;;;;;;18.05;50.72;99169.05;107492;1254;73926;-36
2023/10/30 10:00:28;;;;;;;6.00;2.60;;;;;;;18.15;50.93;99170.14;107481;1258;67755;-36
2023/10/30 10:02:56;;;;;;;7.00;2.90;;;;;;;18.30;50.68;99174.23;107339;1261;72691;-36
2023/10/30 10:05:24;;;;;;;5.40;2.70;;;;;;;18.45;50.18;99171.96;107358;1260;60440;-36
2023/10/30 10:07:52;;;;;;;6.10;2.90;;;;;;;18.59;49.58;99167.61;107380;1254;60353;-36
2023/10/30 10:10:20;;;;;;;4.60;2.70;;;;;;;18.71;48.46;99165.85;107411;1259;73979;-36
2023/10/30 10:12:53;;;;;;;5.60;2.90;;;;;;;18.80;47.80;99157.91;107444;1259;66733;-36
2023/10/30 10:15:21;;;;;;;6.90;2.40;;;;;;;18.87;48.01;99166.58;107438;1259;72873;-36
2023/10/30 10:17:49;;;;;;;6.20;2.70;;;;;;;18.92;47.64;99165.70;107338;1259;60093;-36
2023/10/30 10:20:21;;;;;;;6.80;2.60;;;;;;;18.99;47.74;99164.55;107615;1254;60183;-36
2023/10/30 10:22:50;;;;;;;4.60;2.70;;;;;;;19.06;47.95;99164.35;107526;1261;73945;-36
2023/10/30 10:25:18;;;;;;;4.40;2.70;;;;;;;19.14;47.38;99155.09;107664;1255;67550;-36
2023/10/30 10:27:48;;;;;;;6.50;2.50;;;;;;;19.22;47.68;99155.41;107500;1260;72696;-36
2023/10/30 10:30:23;;;;;;;5.40;2.70;;;;;;;19.31;47.53;99157.12;107509;1258;60189;-37
2023/10/30 10:32:53;;;;;;;6.70;2.70;;;;;;;19.39;47.22;99151.69;107543;1254;60540;-36
2023/10/30 10:35:21;;;;;;;6.80;2.70;;;;;;;19.47;47.40;99147.95;107519;1254;73935;-36
2023/10/30 10:37:49;;;;;;;8.60;2.90;;;;;;;19.56;47.02;99146.67;107564;1254;66341;-36
2023/10/30 10:40:18;;;;;;;5.50;2.70;;;;;;;19.66;46.81;99150.14;107498;1254;71485;-37
2023/10/30 10:42:45;;;;;;;6.90;3.00;;;;;;;19.79;46.60;99148.53;107398;1254;60595;-37
2023/10/30 10:45:13;;;;;;;4.80;2.70;;;;;;;19.93;46.24;99144.52;107516;1254;60162;-35
2023/10/30 10:47:41;;;;;;;4.20;2.40;;;;;;;20.06;46.32;99142.89;107522;1254;73876;-36
2023/10/30 10:50:09;;;;;;;5.00;2.70;;;;;;;20.18;46.20;99140.18;107643;1254;67327;-36
2023/10/30 10:52:37;;;;;;;4.90;2.40;;;;;;;20.28;45.45;99129.86;107512;1254;72760;-37
2023/10/30 10:55:05;;;;;;;7.10;2.90;;;;;;;20.36;44.96;99131.36;107377;1258;60469;-37
2023/10/30 10:57:45;;;;;;;9.50;3.20;;;;;;;20.42;45.18;99131.84;107517;1254;60644;-36
2023/10/30 11:00:13;;;;;;;5.10;2.90;;;;;;;20.49;44.93;99127.27;107505;1254;73928;-37
2023/10/30 11:02:41;;;;;;;6.30;2.90;;;;;;;20.56;45.08;99129.05;107628;1254;66742;-36
2023/10/30 11:05:09;;;;;;;6.40;2.90;;;;;;;20.66;44.80;99125.10;107302;1257;72855;-37
2023/10/30 11:07:42;;;;;;;5.20;3.00;;;;;;;20.78;44.36;99122.16;107591;1254;60414;-37
2023/10/30 11:10:36;;;;;;;4.20;2.40;;;;;;;20.92;44.05;99121.58;107500;1254;60459;-37
2023/10/30 11:13:16;;;;;;;4.90;3.20;;;;;;;21.05;43.63;99120.91;107294;1254;73955;-37
2023/10/30 11:15:48;;;;;;;6.30;2.80;;;;;;;21.14;43.86;99115.39;107393;1254;66561;-37
2023/10/30 11:18:21;;;;;;;5.40;3.10;;;;;;;21.25;43.54;99118.49;107372;1259;72761;-37
2023/10/30 11:21:13;;;;;;;5.60;2.60;;;;;;;21.38;42.98;99118.04;107421;1254;61016;-37
2023/10/30 11:23:56;;;;;;;5.00;2.70;;;;;;;21.53;42.91;99117.21;107517;1254;60414;-37
2023/10/30 11:26:36;;;;;;;5.30;2.40;;;;;;;21.71;42.59;99114.54;107480;1260;73943;-36